sensor_id;sensor_type;location;lat;lon;timestamp;P1;durP1;ratioP1;P2;durP2;ratioP2
69730;SDS011;56996;48.138;11.538;2023-09-30T00:01:23;20.00;;;5.80;;
69730;SDS011;56996;48.138;11.538;2023-09-30T00:03:50;18.30;;;5.60;;
69730;SDS011;56996;48.138;11.538;2023-09-30T00:06:17;18.80;;;5.60;;
69730;SDS011;56996;48.138;11.538;2023-09-30T00:08:44;20.80;;;6.40;;
69730;SDS011;56996;48.138;11.538;2023-09-30T00:11:15;17.50;;;5.50;;
69730;SDS011;56996;48.138;11.538;2023-09-30T00:13:43;19.70;;;5.80;;
69730;SDS011;56996;48.138;11.538;2023-09-30T00:16:10;18.10;;;5.30;;
69730;SDS011;56996;48.138;11.538;2023-09-30T00:18:37;20.70;;;6.20;;
69730;SDS011;56996;48.138;11.538;2023-09-30T00:21:04;19.20;;;6.00;;
69730;SDS011;56996;48.138;11.538;2023-09-30T00:23:32;18.90;;;5.70;;
69730;SDS011;56996;48.138;11.538;2023-09-30T00:25:58;22.40;;;6.40;;
69730;SDS011;56996;48.138;11.538;2023-09-30T00:28:26;21.80;;;6.60;;
69730;SDS011;56996;48.138;11.538;2023-09-30T00:30:53;19.20;;;6.40;;
69730;SDS011;56996;48.138;11.538;2023-09-30T00:33:20;20.50;;;7.00;;
69730;SDS011;56996;48.138;11.538;2023-09-30T00:35:47;19.00;;;6.60;;
69730;SDS011;56996;48.138;11.538;2023-09-30T00:38:14;20.20;;;6.50;;
69730;SDS011;56996;48.138;11.538;2023-09-30T00:40:49;19.60;;;6.20;;
69730;SDS011;56996;48.138;11.538;2023-09-30T00:43:20;20.00;;;5.80;;
69730;SDS011;56996;48.138;11.538;2023-09-30T00:45:48;20.80;;;6.10;;
69730;SDS011;56996;48.138;11.538;2023-09-30T00:48:18;20.90;;;6.40;;
69730;SDS011;56996;48.138;11.538;2023-09-30T00:50:45;20.50;;;6.70;;
69730;SDS011;56996;48.138;11.538;2023-09-30T00:53:12;23.70;;;7.30;;
69730;SDS011;56996;48.138;11.538;2023-09-30T00:55:39;21.60;;;6.10;;
69730;SDS011;56996;48.138;11.538;2023-09-30T00:58:07;22.40;;;6.70;;
69730;SDS011;56996;48.138;11.538;2023-09-30T01:00:34;21.70;;;7.20;;
69730;SDS011;56996;48.138;11.538;2023-09-30T01:03:03;21.40;;;6.90;;
69730;SDS011;56996;48.138;11.538;2023-09-30T01:05:31;22.80;;;7.20;;
69730;SDS011;56996;48.138;11.538;2023-09-30T01:08:01;22.60;;;7.00;;
69730;SDS011;56996;48.138;11.538;2023-09-30T01:10:29;22.60;;;6.70;;
69730;SDS011;56996;48.138;11.538;2023-09-30T01:12:56;20.90;;;6.20;;
69730;SDS011;56996;48.138;11.538;2023-09-30T01:15:23;21.00;;;6.70;;
69730;SDS011;56996;48.138;11.538;2023-09-30T01:17:50;19.30;;;6.50;;
69730;SDS011;56996;48.138;11.538;2023-09-30T01:20:17;22.00;;;7.40;;
69730;SDS011;56996;48.138;11.538;2023-09-30T01:22:45;22.60;;;6.80;;
69730;SDS011;56996;48.138;11.538;2023-09-30T01:25:13;23.90;;;7.10;;
69730;SDS011;56996;48.138;11.538;2023-09-30T01:27:40;22.00;;;7.40;;
69730;SDS011;56996;48.138;11.538;2023-09-30T01:30:07;21.10;;;7.30;;
69730;SDS011;56996;48.138;11.538;2023-09-30T01:32:38;20.10;;;7.00;;
69730;SDS011;56996;48.138;11.538;2023-09-30T01:35:05;23.30;;;7.20;;
69730;SDS011;56996;48.138;11.538;2023-09-30T01:37:32;23.80;;;6.80;;
69730;SDS011;56996;48.138;11.538;2023-09-30T01:39:59;23.50;;;7.10;;
69730;SDS011;56996;48.138;11.538;2023-09-30T01:42:27;21.90;;;7.50;;
69730;SDS011;56996;48.138;11.538;2023-09-30T01:44:53;21.50;;;7.30;;
69730;SDS011;56996;48.138;11.538;2023-09-30T01:47:21;22.00;;;7.30;;
69730;SDS011;56996;48.138;11.538;2023-09-30T01:49:48;22.30;;;6.80;;
69730;SDS011;56996;48.138;11.538;2023-09-30T01:52:14;19.80;;;6.90;;
69730;SDS011;56996;48.138;11.538;2023-09-30T01:54:41;22.40;;;7.30;;
69730;SDS011;56996;48.138;11.538;2023-09-30T01:57:08;20.30;;;7.20;;
69730;SDS011;56996;48.138;11.538;2023-09-30T01:59:35;22.10;;;7.20;;
69730;SDS011;56996;48.138;11.538;2023-09-30T02:02:02;23.60;;;7.20;;
69730;SDS011;56996;48.138;11.538;2023-09-30T02:04:29;20.70;;;7.00;;
69730;SDS011;56996;48.138;11.538;2023-09-30T02:06:57;24.10;;;7.80;;
69730;SDS011;56996;48.138;11.538;2023-09-30T02:09:25;21.20;;;7.10;;
69730;SDS011;56996;48.138;11.538;2023-09-30T02:11:52;21.10;;;7.30;;
69730;SDS011;56996;48.138;11.538;2023-09-30T02:14:19;24.00;;;7.80;;
69730;SDS011;56996;48.138;11.538;2023-09-30T02:16:45;22.00;;;7.30;;
69730;SDS011;56996;48.138;11.538;2023-09-30T02:19:13;22.90;;;7.60;;
69730;SDS011;56996;48.138;11.538;2023-09-30T02:21:39;22.90;;;7.90;;
69730;SDS011;56996;48.138;11.538;2023-09-30T02:24:06;23.80;;;7.30;;
69730;SDS011;56996;48.138;11.538;2023-09-30T02:26:34;21.90;;;6.90;;
69730;SDS011;56996;48.138;11.538;2023-09-30T02:29:01;23.60;;;7.10;;
69730;SDS011;56996;48.138;11.538;2023-09-30T02:31:27;23.70;;;7.80;;
69730;SDS011;56996;48.138;11.538;2023-09-30T02:33:54;24.30;;;7.70;;
69730;SDS011;56996;48.138;11.538;2023-09-30T02:36:22;25.40;;;7.00;;
69730;SDS011;56996;48.138;11.538;2023-09-30T02:38:49;24.60;;;7.70;;
69730;SDS011;56996;48.138;11.538;2023-09-30T02:41:16;21.60;;;6.90;;
69730;SDS011;56996;48.138;11.538;2023-09-30T02:43:42;21.00;;;7.00;;
69730;SDS011;56996;48.138;11.538;2023-09-30T02:46:09;22.00;;;7.10;;
69730;SDS011;56996;48.138;11.538;2023-09-30T02:48:36;24.10;;;7.00;;
69730;SDS011;56996;48.138;11.538;2023-09-30T02:51:03;20.20;;;6.70;;
69730;SDS011;56996;48.138;11.538;2023-09-30T02:53:30;25.90;;;8.30;;
69730;SDS011;56996;48.138;11.538;2023-09-30T02:55:57;24.60;;;7.80;;
69730;SDS011;56996;48.138;11.538;2023-09-30T02:58:26;21.40;;;7.60;;
69730;SDS011;56996;48.138;11.538;2023-09-30T03:00:55;22.40;;;7.10;;
69730;SDS011;56996;48.138;11.538;2023-09-30T03:03:23;22.10;;;7.30;;
69730;SDS011;56996;48.138;11.538;2023-09-30T03:05:53;21.20;;;7.20;;
69730;SDS011;56996;48.138;11.538;2023-09-30T03:08:21;24.10;;;7.10;;
69730;SDS011;56996;48.138;11.538;2023-09-30T03:10:48;23.80;;;6.90;;
69730;SDS011;56996;48.138;11.538;2023-09-30T03:13:15;19.90;;;6.60;;
69730;SDS011;56996;48.138;11.538;2023-09-30T03:15:42;22.00;;;6.60;;
69730;SDS011;56996;48.138;11.538;2023-09-30T03:18:09;19.80;;;6.20;;
69730;SDS011;56996;48.138;11.538;2023-09-30T03:20:36;22.30;;;6.30;;
69730;SDS011;56996;48.138;11.538;2023-09-30T03:23:07;21.70;;;6.20;;
69730;SDS011;56996;48.138;11.538;2023-09-30T03:25:35;21.20;;;6.40;;
69730;SDS011;56996;48.138;11.538;2023-09-30T03:28:02;21.70;;;6.80;;
69730;SDS011;56996;48.138;11.538;2023-09-30T03:30:32;20.80;;;6.60;;
69730;SDS011;56996;48.138;11.538;2023-09-30T03:32:59;21.00;;;6.60;;
69730;SDS011;56996;48.138;11.538;2023-09-30T03:35:26;20.40;;;6.10;;
69730;SDS011;56996;48.138;11.538;2023-09-30T03:37:53;21.80;;;6.70;;
69730;SDS011;56996;48.138;11.538;2023-09-30T03:40:20;22.90;;;6.50;;
69730;SDS011;56996;48.138;11.538;2023-09-30T03:42:54;18.60;;;6.20;;
69730;SDS011;56996;48.138;11.538;2023-09-30T03:45:21;21.40;;;6.20;;
69730;SDS011;56996;48.138;11.538;2023-09-30T03:47:48;22.40;;;6.80;;
69730;SDS011;56996;48.138;11.538;2023-09-30T03:50:16;21.70;;;7.80;;
69730;SDS011;56996;48.138;11.538;2023-09-30T03:52:44;20.70;;;6.80;;
69730;SDS011;56996;48.138;11.538;2023-09-30T03:55:14;24.30;;;6.70;;
69730;SDS011;56996;48.138;11.538;2023-09-30T03:57:44;21.10;;;6.10;;
69730;SDS011;56996;48.138;11.538;2023-09-30T04:00:16;20.50;;;6.80;;
69730;SDS011;56996;48.138;11.538;2023-09-30T04:02:48;19.10;;;6.20;;
69730;SDS011;56996;48.138;11.538;2023-09-30T04:05:18;22.20;;;6.90;;
69730;SDS011;56996;48.138;11.538;2023-09-30T04:07:46;21.20;;;6.60;;
69730;SDS011;56996;48.138;11.538;2023-09-30T04:10:13;21.00;;;6.40;;
69730;SDS011;56996;48.138;11.538;2023-09-30T04:12:40;16.90;;;5.60;;
69730;SDS011;56996;48.138;11.538;2023-09-30T04:15:07;17.30;;;5.90;;
69730;SDS011;56996;48.138;11.538;2023-09-30T04:17:39;19.20;;;6.50;;
69730;SDS011;56996;48.138;11.538;2023-09-30T04:20:07;20.20;;;5.90;;
69730;SDS011;56996;48.138;11.538;2023-09-30T04:22:37;20.90;;;6.60;;
69730;SDS011;56996;48.138;11.538;2023-09-30T04:25:04;20.40;;;6.30;;
69730;SDS011;56996;48.138;11.538;2023-09-30T04:27:35;20.10;;;6.30;;
69730;SDS011;56996;48.138;11.538;2023-09-30T04:30:03;20.10;;;6.10;;
69730;SDS011;56996;48.138;11.538;2023-09-30T04:32:36;17.70;;;5.90;;
69730;SDS011;56996;48.138;11.538;2023-09-30T04:35:04;21.00;;;6.30;;
69730;SDS011;56996;48.138;11.538;2023-09-30T04:37:31;19.00;;;5.90;;
69730;SDS011;56996;48.138;11.538;2023-09-30T04:39:58;20.00;;;6.10;;
69730;SDS011;56996;48.138;11.538;2023-09-30T04:42:25;21.10;;;6.60;;
69730;SDS011;56996;48.138;11.538;2023-09-30T04:44:55;21.50;;;6.00;;
69730;SDS011;56996;48.138;11.538;2023-09-30T04:47:22;18.70;;;5.70;;
69730;SDS011;56996;48.138;11.538;2023-09-30T04:49:50;17.90;;;5.50;;
69730;SDS011;56996;48.138;11.538;2023-09-30T04:52:17;17.30;;;5.20;;
69730;SDS011;56996;48.138;11.538;2023-09-30T04:54:44;19.50;;;5.80;;
69730;SDS011;56996;48.138;11.538;2023-09-30T04:57:12;20.30;;;6.20;;
69730;SDS011;56996;48.138;11.538;2023-09-30T04:59:39;18.20;;;5.00;;
69730;SDS011;56996;48.138;11.538;2023-09-30T05:02:06;19.20;;;5.90;;
69730;SDS011;56996;48.138;11.538;2023-09-30T05:04:32;14.60;;;5.20;;
69730;SDS011;56996;48.138;11.538;2023-09-30T05:06:59;16.60;;;4.90;;
69730;SDS011;56996;48.138;11.538;2023-09-30T05:09:26;17.00;;;5.40;;
69730;SDS011;56996;48.138;11.538;2023-09-30T05:11:55;17.90;;;4.80;;
69730;SDS011;56996;48.138;11.538;2023-09-30T05:14:22;17.40;;;5.10;;
69730;SDS011;56996;48.138;11.538;2023-09-30T05:16:48;17.30;;;5.20;;
69730;SDS011;56996;48.138;11.538;2023-09-30T05:19:15;19.20;;;5.40;;
69730;SDS011;56996;48.138;11.538;2023-09-30T05:21:42;19.30;;;5.40;;
69730;SDS011;56996;48.138;11.538;2023-09-30T05:24:11;17.50;;;5.10;;
69730;SDS011;56996;48.138;11.538;2023-09-30T05:26:38;17.80;;;5.90;;
69730;SDS011;56996;48.138;11.538;2023-09-30T05:29:05;16.60;;;5.10;;
69730;SDS011;56996;48.138;11.538;2023-09-30T05:31:32;19.00;;;5.40;;
69730;SDS011;56996;48.138;11.538;2023-09-30T05:33:59;19.60;;;5.70;;
69730;SDS011;56996;48.138;11.538;2023-09-30T05:36:27;18.00;;;5.10;;
69730;SDS011;56996;48.138;11.538;2023-09-30T05:38:54;17.70;;;5.50;;
69730;SDS011;56996;48.138;11.538;2023-09-30T05:41:22;18.10;;;5.60;;
69730;SDS011;56996;48.138;11.538;2023-09-30T05:43:48;16.80;;;5.40;;
69730;SDS011;56996;48.138;11.538;2023-09-30T05:46:16;18.10;;;5.50;;
69730;SDS011;56996;48.138;11.538;2023-09-30T05:48:42;18.90;;;6.20;;
69730;SDS011;56996;48.138;11.538;2023-09-30T05:51:09;18.30;;;5.80;;
69730;SDS011;56996;48.138;11.538;2023-09-30T05:53:41;19.40;;;5.20;;
69730;SDS011;56996;48.138;11.538;2023-09-30T05:56:08;18.00;;;5.20;;
69730;SDS011;56996;48.138;11.538;2023-09-30T05:58:40;17.10;;;5.10;;
69730;SDS011;56996;48.138;11.538;2023-09-30T06:01:09;18.60;;;5.30;;
69730;SDS011;56996;48.138;11.538;2023-09-30T06:03:37;19.20;;;5.70;;
69730;SDS011;56996;48.138;11.538;2023-09-30T06:06:14;20.00;;;6.50;;
69730;SDS011;56996;48.138;11.538;2023-09-30T06:08:42;17.70;;;5.40;;
69730;SDS011;56996;48.138;11.538;2023-09-30T06:11:21;17.60;;;5.70;;
69730;SDS011;56996;48.138;11.538;2023-09-30T06:13:51;16.40;;;5.60;;
69730;SDS011;56996;48.138;11.538;2023-09-30T06:16:20;17.70;;;5.20;;
69730;SDS011;56996;48.138;11.538;2023-09-30T06:18:47;17.40;;;5.20;;
69730;SDS011;56996;48.138;11.538;2023-09-30T06:21:15;17.50;;;5.50;;
69730;SDS011;56996;48.138;11.538;2023-09-30T06:23:44;19.50;;;5.90;;
69730;SDS011;56996;48.138;11.538;2023-09-30T06:26:11;17.90;;;4.90;;
69730;SDS011;56996;48.138;11.538;2023-09-30T06:28:37;17.90;;;4.90;;
69730;SDS011;56996;48.138;11.538;2023-09-30T06:31:07;15.00;;;4.50;;
69730;SDS011;56996;48.138;11.538;2023-09-30T06:33:38;16.00;;;4.50;;
69730;SDS011;56996;48.138;11.538;2023-09-30T06:36:10;14.40;;;3.60;;
69730;SDS011;56996;48.138;11.538;2023-09-30T06:38:37;14.20;;;4.30;;
69730;SDS011;56996;48.138;11.538;2023-09-30T06:41:04;13.40;;;3.80;;
69730;SDS011;56996;48.138;11.538;2023-09-30T06:43:32;12.60;;;3.90;;
69730;SDS011;56996;48.138;11.538;2023-09-30T06:45:59;11.60;;;3.60;;
69730;SDS011;56996;48.138;11.538;2023-09-30T06:48:27;15.20;;;4.40;;
69730;SDS011;56996;48.138;11.538;2023-09-30T06:50:54;12.80;;;3.90;;
69730;SDS011;56996;48.138;11.538;2023-09-30T06:53:21;12.70;;;3.90;;
69730;SDS011;56996;48.138;11.538;2023-09-30T06:55:48;15.10;;;4.10;;
69730;SDS011;56996;48.138;11.538;2023-09-30T06:58:15;13.00;;;4.10;;
69730;SDS011;56996;48.138;11.538;2023-09-30T07:00:51;11.50;;;3.60;;
69730;SDS011;56996;48.138;11.538;2023-09-30T07:03:20;13.70;;;4.30;;
69730;SDS011;56996;48.138;11.538;2023-09-30T07:05:53;12.40;;;3.60;;
69730;SDS011;56996;48.138;11.538;2023-09-30T07:08:22;14.40;;;4.20;;
69730;SDS011;56996;48.138;11.538;2023-09-30T07:10:49;12.10;;;3.70;;
69730;SDS011;56996;48.138;11.538;2023-09-30T07:13:16;11.40;;;3.30;;
69730;SDS011;56996;48.138;11.538;2023-09-30T07:15:44;13.40;;;3.60;;
69730;SDS011;56996;48.138;11.538;2023-09-30T07:18:11;11.60;;;3.90;;
69730;SDS011;56996;48.138;11.538;2023-09-30T07:20:38;12.00;;;3.90;;
69730;SDS011;56996;48.138;11.538;2023-09-30T07:23:05;12.00;;;3.10;;
69730;SDS011;56996;48.138;11.538;2023-09-30T07:25:45;14.50;;;3.90;;
69730;SDS011;56996;48.138;11.538;2023-09-30T07:28:11;10.80;;;3.60;;
69730;SDS011;56996;48.138;11.538;2023-09-30T07:30:39;12.80;;;3.30;;
69730;SDS011;56996;48.138;11.538;2023-09-30T07:33:07;11.90;;;3.40;;
69730;SDS011;56996;48.138;11.538;2023-09-30T07:35:34;12.80;;;3.40;;
69730;SDS011;56996;48.138;11.538;2023-09-30T07:38:03;12.60;;;3.70;;
69730;SDS011;56996;48.138;11.538;2023-09-30T07:40:31;10.70;;;2.90;;
69730;SDS011;56996;48.138;11.538;2023-09-30T07:42:57;10.90;;;3.40;;
69730;SDS011;56996;48.138;11.538;2023-09-30T07:45:24;11.00;;;3.30;;
69730;SDS011;56996;48.138;11.538;2023-09-30T07:47:51;11.50;;;3.80;;
69730;SDS011;56996;48.138;11.538;2023-09-30T07:50:18;12.00;;;3.20;;
69730;SDS011;56996;48.138;11.538;2023-09-30T07:52:45;11.10;;;3.50;;
69730;SDS011;56996;48.138;11.538;2023-09-30T07:55:13;12.40;;;3.60;;
69730;SDS011;56996;48.138;11.538;2023-09-30T07:57:40;10.30;;;3.20;;
69730;SDS011;56996;48.138;11.538;2023-09-30T08:00:10;10.80;;;3.40;;
69730;SDS011;56996;48.138;11.538;2023-09-30T08:02:41;11.00;;;3.40;;
69730;SDS011;56996;48.138;11.538;2023-09-30T08:05:10;10.60;;;2.90;;
69730;SDS011;56996;48.138;11.538;2023-09-30T08:07:36;11.90;;;3.60;;
69730;SDS011;56996;48.138;11.538;2023-09-30T08:10:03;11.40;;;3.30;;
69730;SDS011;56996;48.138;11.538;2023-09-30T08:12:33;12.80;;;3.50;;
69730;SDS011;56996;48.138;11.538;2023-09-30T08:15:00;10.90;;;3.60;;
69730;SDS011;56996;48.138;11.538;2023-09-30T08:17:29;10.80;;;2.90;;
69730;SDS011;56996;48.138;11.538;2023-09-30T08:19:56;12.80;;;3.90;;
69730;SDS011;56996;48.138;11.538;2023-09-30T08:22:23;11.70;;;3.60;;
69730;SDS011;56996;48.138;11.538;2023-09-30T08:24:54;10.60;;;3.70;;
69730;SDS011;56996;48.138;11.538;2023-09-30T08:27:21;11.10;;;3.40;;
69730;SDS011;56996;48.138;11.538;2023-09-30T08:29:50;12.30;;;3.80;;
69730;SDS011;56996;48.138;11.538;2023-09-30T08:32:17;11.40;;;3.90;;
69730;SDS011;56996;48.138;11.538;2023-09-30T08:34:43;11.90;;;3.70;;
69730;SDS011;56996;48.138;11.538;2023-09-30T08:37:10;12.10;;;4.10;;
69730;SDS011;56996;48.138;11.538;2023-09-30T08:39:40;12.40;;;3.90;;
69730;SDS011;56996;48.138;11.538;2023-09-30T08:42:10;12.90;;;4.10;;
69730;SDS011;56996;48.138;11.538;2023-09-30T08:44:40;12.00;;;3.90;;
69730;SDS011;56996;48.138;11.538;2023-09-30T08:47:07;11.70;;;3.90;;
69730;SDS011;56996;48.138;11.538;2023-09-30T08:49:38;12.00;;;4.10;;
69730;SDS011;56996;48.138;11.538;2023-09-30T08:52:09;12.60;;;4.00;;
69730;SDS011;56996;48.138;11.538;2023-09-30T08:54:37;11.60;;;4.20;;
69730;SDS011;56996;48.138;11.538;2023-09-30T08:57:04;11.90;;;4.00;;
69730;SDS011;56996;48.138;11.538;2023-09-30T08:59:34;11.80;;;3.50;;
69730;SDS011;56996;48.138;11.538;2023-09-30T09:02:04;11.80;;;4.10;;
69730;SDS011;56996;48.138;11.538;2023-09-30T09:04:38;11.90;;;3.90;;
69730;SDS011;56996;48.138;11.538;2023-09-30T09:07:05;12.00;;;3.70;;
69730;SDS011;56996;48.138;11.538;2023-09-30T09:09:32;12.60;;;3.90;;
69730;SDS011;56996;48.138;11.538;2023-09-30T09:11:59;10.90;;;4.00;;
69730;SDS011;56996;48.138;11.538;2023-09-30T09:14:39;11.90;;;4.70;;
69730;SDS011;56996;48.138;11.538;2023-09-30T09:17:08;12.10;;;4.40;;
69730;SDS011;56996;48.138;11.538;2023-09-30T09:19:36;12.90;;;4.60;;
69730;SDS011;56996;48.138;11.538;2023-09-30T09:22:03;10.30;;;3.80;;
69730;SDS011;56996;48.138;11.538;2023-09-30T09:24:35;13.40;;;5.20;;
69730;SDS011;56996;48.138;11.538;2023-09-30T09:27:11;12.20;;;4.10;;
69730;SDS011;56996;48.138;11.538;2023-09-30T09:29:39;13.00;;;5.50;;
69730;SDS011;56996;48.138;11.538;2023-09-30T09:32:14;12.10;;;4.50;;
69730;SDS011;56996;48.138;11.538;2023-09-30T09:34:43;11.80;;;4.30;;
69730;SDS011;56996;48.138;11.538;2023-09-30T09:37:19;11.70;;;4.00;;
69730;SDS011;56996;48.138;11.538;2023-09-30T09:39:53;12.00;;;3.80;;
69730;SDS011;56996;48.138;11.538;2023-09-30T09:42:24;12.30;;;4.10;;
69730;SDS011;56996;48.138;11.538;2023-09-30T09:45:00;12.70;;;4.40;;
69730;SDS011;56996;48.138;11.538;2023-09-30T09:47:29;13.30;;;4.80;;
69730;SDS011;56996;48.138;11.538;2023-09-30T09:49:59;10.90;;;3.80;;
69730;SDS011;56996;48.138;11.538;2023-09-30T09:52:35;12.10;;;3.90;;
69730;SDS011;56996;48.138;11.538;2023-09-30T09:55:03;10.60;;;3.70;;
69730;SDS011;56996;48.138;11.538;2023-09-30T09:57:31;11.40;;;3.70;;
69730;SDS011;56996;48.138;11.538;2023-09-30T09:59:59;28.00;;;20.90;;
69730;SDS011;56996;48.138;11.538;2023-09-30T10:02:26;13.30;;;4.20;;
69730;SDS011;56996;48.138;11.538;2023-09-30T10:04:55;10.80;;;4.00;;
69730;SDS011;56996;48.138;11.538;2023-09-30T10:07:33;10.80;;;3.90;;
69730;SDS011;56996;48.138;11.538;2023-09-30T10:10:06;11.20;;;3.90;;
69730;SDS011;56996;48.138;11.538;2023-09-30T10:12:40;11.40;;;4.30;;
69730;SDS011;56996;48.138;11.538;2023-09-30T10:18:09;10.00;;;3.40;;
69730;SDS011;56996;48.138;11.538;2023-09-30T10:20:43;9.70;;;3.50;;
69730;SDS011;56996;48.138;11.538;2023-09-30T10:23:22;10.90;;;3.60;;
69730;SDS011;56996;48.138;11.538;2023-09-30T10:26:13;9.60;;;3.30;;
69730;SDS011;56996;48.138;11.538;2023-09-30T10:28:45;9.90;;;3.40;;
69730;SDS011;56996;48.138;11.538;2023-09-30T10:31:17;11.30;;;3.50;;
69730;SDS011;56996;48.138;11.538;2023-09-30T10:36:32;9.80;;;2.50;;
69730;SDS011;56996;48.138;11.538;2023-09-30T10:39:01;9.10;;;3.20;;
69730;SDS011;56996;48.138;11.538;2023-09-30T10:46:57;8.70;;;2.90;;
69730;SDS011;56996;48.138;11.538;2023-09-30T10:51:56;10.30;;;3.20;;
69730;SDS011;56996;48.138;11.538;2023-09-30T10:54:24;9.10;;;2.50;;
69730;SDS011;56996;48.138;11.538;2023-09-30T10:56:52;9.80;;;3.10;;
69730;SDS011;56996;48.138;11.538;2023-09-30T10:59:21;10.10;;;3.10;;
69730;SDS011;56996;48.138;11.538;2023-09-30T11:01:52;9.30;;;3.10;;
69730;SDS011;56996;48.138;11.538;2023-09-30T11:04:20;11.70;;;3.20;;
69730;SDS011;56996;48.138;11.538;2023-09-30T11:06:48;12.40;;;3.40;;
69730;SDS011;56996;48.138;11.538;2023-09-30T11:09:22;9.80;;;3.10;;
69730;SDS011;56996;48.138;11.538;2023-09-30T11:11:51;10.00;;;3.30;;
69730;SDS011;56996;48.138;11.538;2023-09-30T11:14:30;9.90;;;3.10;;
69730;SDS011;56996;48.138;11.538;2023-09-30T11:16:59;9.90;;;3.10;;
69730;SDS011;56996;48.138;11.538;2023-09-30T11:19:35;9.70;;;3.00;;
69730;SDS011;56996;48.138;11.538;2023-09-30T11:22:16;10.50;;;3.40;;
69730;SDS011;56996;48.138;11.538;2023-09-30T11:24:43;11.20;;;3.60;;
69730;SDS011;56996;48.138;11.538;2023-09-30T11:27:12;12.50;;;3.80;;
69730;SDS011;56996;48.138;11.538;2023-09-30T11:29:49;10.70;;;3.40;;
69730;SDS011;56996;48.138;11.538;2023-09-30T11:32:24;10.00;;;3.30;;
69730;SDS011;56996;48.138;11.538;2023-09-30T11:34:55;11.10;;;3.70;;
69730;SDS011;56996;48.138;11.538;2023-09-30T11:37:23;9.40;;;2.90;;
69730;SDS011;56996;48.138;11.538;2023-09-30T11:39:50;11.80;;;4.40;;
69730;SDS011;56996;48.138;11.538;2023-09-30T11:42:17;10.00;;;3.10;;
69730;SDS011;56996;48.138;11.538;2023-09-30T11:44:47;11.50;;;3.60;;
69730;SDS011;56996;48.138;11.538;2023-09-30T11:47:15;11.10;;;3.90;;
69730;SDS011;56996;48.138;11.538;2023-09-30T11:49:43;13.40;;;4.40;;
69730;SDS011;56996;48.138;11.538;2023-09-30T11:52:16;13.90;;;4.80;;
69730;SDS011;56996;48.138;11.538;2023-09-30T11:54:44;14.80;;;4.70;;
69730;SDS011;56996;48.138;11.538;2023-09-30T11:57:14;13.60;;;4.30;;
69730;SDS011;56996;48.138;11.538;2023-09-30T11:59:47;11.50;;;3.90;;
69730;SDS011;56996;48.138;11.538;2023-09-30T12:02:15;13.90;;;4.30;;
69730;SDS011;56996;48.138;11.538;2023-09-30T12:04:45;14.80;;;5.00;;
69730;SDS011;56996;48.138;11.538;2023-09-30T12:07:14;13.40;;;4.50;;
69730;SDS011;56996;48.138;11.538;2023-09-30T12:09:42;12.90;;;4.40;;
69730;SDS011;56996;48.138;11.538;2023-09-30T12:12:09;12.80;;;4.20;;
69730;SDS011;56996;48.138;11.538;2023-09-30T12:14:37;13.20;;;4.10;;
69730;SDS011;56996;48.138;11.538;2023-09-30T12:17:04;12.10;;;4.20;;
69730;SDS011;56996;48.138;11.538;2023-09-30T12:19:31;14.90;;;5.10;;
69730;SDS011;56996;48.138;11.538;2023-09-30T12:21:58;15.90;;;5.00;;
69730;SDS011;56996;48.138;11.538;2023-09-30T12:24:25;14.10;;;4.70;;
69730;SDS011;56996;48.138;11.538;2023-09-30T12:26:54;14.70;;;4.90;;
69730;SDS011;56996;48.138;11.538;2023-09-30T12:29:22;17.80;;;5.30;;
69730;SDS011;56996;48.138;11.538;2023-09-30T12:31:53;17.30;;;5.90;;
69730;SDS011;56996;48.138;11.538;2023-09-30T12:34:21;15.00;;;5.60;;
69730;SDS011;56996;48.138;11.538;2023-09-30T12:36:54;17.40;;;5.40;;
69730;SDS011;56996;48.138;11.538;2023-09-30T12:39:24;15.30;;;5.60;;
69730;SDS011;56996;48.138;11.538;2023-09-30T12:41:53;16.00;;;5.10;;
69730;SDS011;56996;48.138;11.538;2023-09-30T12:44:20;15.50;;;5.00;;
69730;SDS011;56996;48.138;11.538;2023-09-30T12:46:46;16.80;;;5.60;;
69730;SDS011;56996;48.138;11.538;2023-09-30T12:49:14;13.90;;;4.80;;
69730;SDS011;56996;48.138;11.538;2023-09-30T12:51:42;12.50;;;4.50;;
69730;SDS011;56996;48.138;11.538;2023-09-30T12:54:09;12.80;;;4.80;;
69730;SDS011;56996;48.138;11.538;2023-09-30T12:56:37;13.30;;;4.50;;
69730;SDS011;56996;48.138;11.538;2023-09-30T12:59:04;14.50;;;4.30;;
69730;SDS011;56996;48.138;11.538;2023-09-30T13:01:31;14.30;;;4.20;;
69730;SDS011;56996;48.138;11.538;2023-09-30T13:04:02;15.40;;;5.00;;
69730;SDS011;56996;48.138;11.538;2023-09-30T13:06:29;14.40;;;5.00;;
69730;SDS011;56996;48.138;11.538;2023-09-30T13:08:59;14.10;;;4.20;;
69730;SDS011;56996;48.138;11.538;2023-09-30T13:11:27;14.40;;;4.80;;
69730;SDS011;56996;48.138;11.538;2023-09-30T13:13:54;13.60;;;4.30;;
69730;SDS011;56996;48.138;11.538;2023-09-30T13:16:21;14.20;;;4.90;;
69730;SDS011;56996;48.138;11.538;2023-09-30T13:18:49;13.70;;;4.10;;
69730;SDS011;56996;48.138;11.538;2023-09-30T13:21:19;13.00;;;4.00;;
69730;SDS011;56996;48.138;11.538;2023-09-30T13:23:46;14.80;;;4.60;;
69730;SDS011;56996;48.138;11.538;2023-09-30T13:26:13;13.40;;;5.00;;
69730;SDS011;56996;48.138;11.538;2023-09-30T13:28:39;13.70;;;4.20;;
69730;SDS011;56996;48.138;11.538;2023-09-30T13:31:06;13.80;;;4.40;;
69730;SDS011;56996;48.138;11.538;2023-09-30T13:33:33;12.50;;;4.30;;
69730;SDS011;56996;48.138;11.538;2023-09-30T13:36:00;14.90;;;4.30;;
69730;SDS011;56996;48.138;11.538;2023-09-30T13:38:29;11.80;;;3.70;;
69730;SDS011;56996;48.138;11.538;2023-09-30T13:40:55;12.40;;;4.20;;
69730;SDS011;56996;48.138;11.538;2023-09-30T13:43:22;12.40;;;4.30;;
69730;SDS011;56996;48.138;11.538;2023-09-30T13:45:49;12.80;;;4.40;;
69730;SDS011;56996;48.138;11.538;2023-09-30T13:48:17;14.20;;;3.90;;
69730;SDS011;56996;48.138;11.538;2023-09-30T13:50:44;11.40;;;4.40;;
69730;SDS011;56996;48.138;11.538;2023-09-30T13:53:11;14.10;;;4.70;;
69730;SDS011;56996;48.138;11.538;2023-09-30T13:55:38;14.10;;;4.50;;
69730;SDS011;56996;48.138;11.538;2023-09-30T13:58:06;13.40;;;4.30;;
69730;SDS011;56996;48.138;11.538;2023-09-30T14:00:33;12.90;;;3.90;;
69730;SDS011;56996;48.138;11.538;2023-09-30T14:03:00;12.20;;;4.20;;
69730;SDS011;56996;48.138;11.538;2023-09-30T14:05:27;13.00;;;4.30;;
69730;SDS011;56996;48.138;11.538;2023-09-30T14:07:54;12.50;;;4.00;;
69730;SDS011;56996;48.138;11.538;2023-09-30T14:10:21;13.20;;;4.60;;
69730;SDS011;56996;48.138;11.538;2023-09-30T14:12:47;13.00;;;4.20;;
69730;SDS011;56996;48.138;11.538;2023-09-30T14:15:17;13.00;;;4.40;;
69730;SDS011;56996;48.138;11.538;2023-09-30T14:17:44;13.50;;;3.90;;
69730;SDS011;56996;48.138;11.538;2023-09-30T14:20:11;13.40;;;3.90;;
69730;SDS011;56996;48.138;11.538;2023-09-30T14:22:39;12.90;;;4.40;;
69730;SDS011;56996;48.138;11.538;2023-09-30T14:25:06;11.60;;;4.20;;
69730;SDS011;56996;48.138;11.538;2023-09-30T14:27:34;13.50;;;4.90;;
69730;SDS011;56996;48.138;11.538;2023-09-30T14:30:00;13.60;;;4.70;;
69730;SDS011;56996;48.138;11.538;2023-09-30T14:32:27;13.20;;;3.90;;
69730;SDS011;56996;48.138;11.538;2023-09-30T14:34:54;12.10;;;4.00;;
69730;SDS011;56996;48.138;11.538;2023-09-30T14:37:21;14.10;;;4.30;;
69730;SDS011;56996;48.138;11.538;2023-09-30T14:39:48;13.30;;;4.20;;
69730;SDS011;56996;48.138;11.538;2023-09-30T14:42:15;12.40;;;4.40;;